createdAt,value
2016-04-18T00:00:10.099Z,18.11
2016-04-18T00:01:10.132Z,18.21
2016-04-18T00:02:10.151Z,18.01
2016-04-18T00:03:10.185Z,18.11
2016-04-18T00:04:10.234Z,18.21
2016-04-18T00:05:10.238Z,18.11
2016-04-18T00:06:10.271Z,18.21
2016-04-18T00:07:10.290Z,18.01
2016-04-18T00:08:10.324Z,18.01
2016-04-18T00:09:10.342Z,18.01
2016-04-18T00:10:10.407Z,18.21
2016-04-18T00:11:10.394Z,18.11
2016-04-18T00:12:10.444Z,18.11
2016-04-18T00:13:10.461Z,18.01
2016-04-18T00:14:10.495Z,18.01
2016-04-18T00:15:10.535Z,18.3
2016-04-18T00:16:10.596Z,18.11
2016-04-18T00:17:10.673Z,18.01
2016-04-18T00:18:10.750Z,18.3
2016-04-18T00:19:10.812Z,18.11
2016-04-18T00:20:10.875Z,18.01
2016-04-18T00:21:10.909Z,18.01
2016-04-18T00:22:10.958Z,18.21
2016-04-18T00:23:10.992Z,18.11
2016-04-18T00:24:11.167Z,18.11
2016-04-18T00:25:11.070Z,18.11
2016-04-18T00:26:11.125Z,18.3
2016-04-18T00:27:11.150Z,18.3
2016-04-18T00:28:11.205Z,18.21
2016-04-18T00:29:11.214Z,18.11
2016-04-18T00:30:11.235Z,18.21
2016-04-18T00:31:11.287Z,18.11
2016-04-18T00:32:11.338Z,18.11
2016-04-18T00:33:11.328Z,18.11
2016-04-18T00:34:11.363Z,18.11
2016-04-18T00:35:11.382Z,18.01
2016-04-18T00:36:11.418Z,18.3
2016-04-18T00:37:11.452Z,18.3
2016-04-18T00:38:11.472Z,18.3
2016-04-18T00:39:11.506Z,18.21
2016-04-18T00:40:11.524Z,18.11
2016-04-18T00:41:11.559Z,17.91
2016-04-18T00:42:11.594Z,18.11
2016-04-18T00:43:11.613Z,18.21
2016-04-18T00:44:11.662Z,18.3
2016-04-18T00:45:11.665Z,18.3
2016-04-18T00:46:11.730Z,18.4
2016-04-18T00:47:11.717Z,18.4
2016-04-18T00:48:11.751Z,18.3
2016-04-18T00:49:11.786Z,18.3
2016-04-18T00:50:11.820Z,18.4
2016-04-18T00:51:11.822Z,18.4
2016-04-18T00:52:11.872Z,18.3
2016-04-18T00:53:11.890Z,18.21
2016-04-18T00:54:11.924Z,18.3
2016-04-18T00:55:11.942Z,18.3
2016-04-18T00:56:11.992Z,18.4
2016-04-18T00:57:12.010Z,18.3
2016-04-18T00:58:12.029Z,18.21
2016-04-18T00:59:11.922Z,18.21
2016-04-18T01:00:12.081Z,18.4
2016-04-18T01:01:12.099Z,18.4
2016-04-18T01:02:12.196Z,18.11
2016-04-18T01:03:12.167Z,18.4
2016-04-18T01:04:12.201Z,18.3
2016-04-18T01:05:12.219Z,18.01
2016-04-18T01:06:12.238Z,18.11
2016-04-18T01:07:12.287Z,18.4
2016-04-18T01:08:12.337Z,18.11
2016-04-18T01:09:12.183Z,18.01
2016-04-18T01:10:12.357Z,18.11
2016-04-18T01:11:12.392Z,18.4
2016-04-18T01:12:12.410Z,18.4
2016-04-18T01:13:12.428Z,18.01
2016-04-18T01:14:12.462Z,18.01
2016-04-18T01:15:12.495Z,18.01
2016-04-18T01:16:12.514Z,18.11
2016-04-18T01:17:12.548Z,18.11
2016-04-18T01:18:12.582Z,18.01
2016-04-18T01:19:12.601Z,18.11
2016-04-18T01:20:12.634Z,18.21
2016-04-18T01:21:12.652Z,18.01
2016-04-18T01:22:12.687Z,17.82
2016-04-18T01:23:12.736Z,17.91
2016-04-18T01:24:12.738Z,18.01
2016-04-18T01:25:12.758Z,17.52
2016-04-18T01:26:12.823Z,17.62
2016-04-18T01:27:12.824Z,17.82
2016-04-18T01:28:12.844Z,17.52
2016-04-18T01:29:12.877Z,17.91
2016-04-18T01:30:12.911Z,17.91
2016-04-18T01:31:12.930Z,17.91
2016-04-18T01:32:12.979Z,17.72
2016-04-18T01:33:12.982Z,17.52
2016-04-18T01:34:13.032Z,18.11
2016-04-18T01:35:13.050Z,18.01
2016-04-18T01:36:13.099Z,17.91
2016-04-18T01:37:13.087Z,17.62
2016-04-18T01:38:13.120Z,17.52
2016-04-18T01:39:13.170Z,17.52
2016-04-18T01:40:13.172Z,17.52
2016-04-18T01:41:13.223Z,17.62
2016-04-18T01:42:13.240Z,17.52
2016-04-18T01:43:13.259Z,17.52
2016-04-18T01:44:13.293Z,18.01
2016-04-18T01:45:13.312Z,17.52
2016-04-18T01:46:13.329Z,17.82
2016-04-18T01:47:13.364Z,17.62
2016-04-18T01:48:13.397Z,17.52
2016-04-18T01:49:13.431Z,17.62
2016-04-18T01:50:13.449Z,17.91
2016-04-18T01:51:13.467Z,17.52
2016-04-18T01:52:13.486Z,17.52
2016-04-18T01:53:13.520Z,17.91
2016-04-18T01:54:13.663Z,17.62
2016-04-18T01:55:13.588Z,17.62
2016-04-18T01:56:13.606Z,17.82
2016-04-18T01:57:13.656Z,17.91
2016-04-18T01:58:13.705Z,17.82
2016-04-18T01:59:13.693Z,17.62
2016-04-18T02:00:13.726Z,17.62
2016-04-18T02:01:13.760Z,17.52
2016-04-18T02:02:13.779Z,17.62
2016-04-18T02:03:13.812Z,17.72
2016-04-18T02:04:13.832Z,17.91
2016-04-18T02:05:13.849Z,17.62
2016-04-18T02:06:13.882Z,17.91
2016-04-18T02:07:13.917Z,17.82
2016-04-18T02:08:13.952Z,17.62
2016-04-18T02:09:14.016Z,17.82
2016-04-18T02:10:13.987Z,17.62
2016-04-18T02:11:14.021Z,17.72
2016-04-18T02:12:14.040Z,17.72
2016-04-18T02:13:14.449Z,17.62
2016-04-18T02:14:14.264Z,17.82
2016-04-18T02:15:14.501Z,17.82
2016-04-18T02:16:14.379Z,17.72
2016-04-18T02:17:14.459Z,17.43
2016-04-18T02:18:14.384Z,17.62
2016-04-18T02:19:14.528Z,17.62
2016-04-18T02:20:14.406Z,17.43
2016-04-18T02:21:14.502Z,17.82
2016-04-18T02:22:14.458Z,17.82
2016-04-18T02:23:14.585Z,17.72
2016-04-18T02:24:14.681Z,17.82
2016-04-18T02:25:14.590Z,17.43
2016-04-18T02:26:14.453Z,17.52
2016-04-18T02:27:14.549Z,17.91
2016-04-18T02:28:14.489Z,17.72
2016-04-18T02:29:14.774Z,17.52
2016-04-18T02:30:14.541Z,17.43
2016-04-18T02:31:14.622Z,17.62
2016-04-18T02:32:14.594Z,17.52
2016-04-18T02:33:14.737Z,17.62
2016-04-18T02:34:14.787Z,17.43
2016-04-18T02:35:14.727Z,17.62
2016-04-18T02:36:14.729Z,17.62
2016-04-18T02:37:14.857Z,17.72
2016-04-18T02:38:14.765Z,17.72
2016-04-18T02:39:15.035Z,17.62
2016-04-18T02:40:14.819Z,17.72
2016-04-18T02:41:14.977Z,17.43
2016-04-18T02:42:14.871Z,17.43
2016-04-18T02:43:14.967Z,17.72
2016-04-18T02:44:15.063Z,17.72
2016-04-18T02:45:15.066Z,17.62
2016-04-18T02:46:14.990Z,17.62
2016-04-18T02:47:15.056Z,17.72
2016-04-18T02:48:15.042Z,17.62
2016-04-18T02:49:15.358Z,17.82
2016-04-18T02:50:15.126Z,17.43
2016-04-18T02:51:15.176Z,17.72
2016-04-18T02:52:15.147Z,17.72
2016-04-18T02:53:15.259Z,17.72
2016-04-18T02:54:15.216Z,17.62
2016-04-18T02:55:15.312Z,17.43
2016-04-18T02:56:15.283Z,17.82
2016-04-18T02:57:15.364Z,17.52
2016-04-18T02:58:15.304Z,17.72
2016-04-18T02:59:15.464Z,17.82
2016-04-18T03:00:15.371Z,17.52
2016-04-18T03:01:15.500Z,17.62
2016-04-18T03:02:15.408Z,17.72
2016-04-18T03:03:15.505Z,17.62
2016-04-18T03:04:15.476Z,17.72
2016-04-18T03:05:15.541Z,17.82
2016-04-18T03:06:15.544Z,17.82
2016-04-18T03:07:15.610Z,17.62
2016-04-18T03:08:15.582Z,17.82
2016-04-18T03:09:15.757Z,17.91
2016-04-18T03:10:15.649Z,17.91
2016-04-18T03:11:15.762Z,17.82
2016-04-18T03:12:15.717Z,17.82
2016-04-18T03:13:15.767Z,17.82
2016-04-18T03:14:15.738Z,17.52
2016-04-18T03:15:15.866Z,17.91
2016-04-18T03:16:15.806Z,17.91
2016-04-18T03:17:15.918Z,17.62
2016-04-18T03:18:15.859Z,17.62
2016-04-18T03:19:15.939Z,17.91
2016-04-18T03:20:15.911Z,17.62
2016-04-18T03:21:15.975Z,17.52
2016-04-18T03:22:15.994Z,17.52
2016-04-18T03:23:16.075Z,17.52
2016-04-18T03:24:16.078Z,17.62
2016-04-18T03:25:16.127Z,17.62
2016-04-18T03:26:16.067Z,17.91
2016-04-18T03:27:16.147Z,17.62
2016-04-18T03:28:16.135Z,17.62
2016-04-18T03:29:16.246Z,17.72
2016-04-18T03:30:16.187Z,17.52
2016-04-18T03:31:16.221Z,17.52
2016-04-18T03:32:16.239Z,17.72
2016-04-18T03:33:16.258Z,17.52
2016-04-18T03:34:16.307Z,17.52
2016-04-18T03:35:16.357Z,17.72
2016-04-18T03:36:16.343Z,17.62
2016-04-18T03:37:16.377Z,17.52
2016-04-18T03:38:16.412Z,17.52
2016-04-18T03:39:16.665Z,17.52
2016-04-18T03:40:16.465Z,17.52
2016-04-18T03:41:16.513Z,17.82
2016-04-18T03:42:16.516Z,18.01
2016-04-18T03:43:16.535Z,18.01
2016-04-18T03:44:16.584Z,17.82
2016-04-18T03:45:16.618Z,17.72
2016-04-18T03:46:16.620Z,17.62
2016-04-18T03:47:16.640Z,17.62
2016-04-18T03:48:16.673Z,17.72
2016-04-18T03:49:16.848Z,17.43
2016-04-18T03:50:16.741Z,17.91
2016-04-18T03:51:16.759Z,17.62
2016-04-18T03:52:16.793Z,17.82
2016-04-18T03:53:16.811Z,17.82
2016-04-18T03:54:16.861Z,18.01
2016-04-18T03:55:16.879Z,18.11
2016-04-18T03:56:16.897Z,18.11
2016-04-18T03:57:16.916Z,18.01
2016-04-18T03:58:17.294Z,17.82
2016-04-18T03:59:17.141Z,17.82
2016-04-18T04:00:17.314Z,17.82
2016-04-18T04:01:17.333Z,17.62
2016-04-18T04:02:17.289Z,17.52
2016-04-18T04:03:17.339Z,17.52
2016-04-18T04:04:17.388Z,17.91
2016-04-18T04:05:17.360Z,17.62
2016-04-18T04:06:17.315Z,17.82
2016-04-18T04:07:17.412Z,17.52
2016-04-18T04:08:17.305Z,17.91
2016-04-18T04:09:17.667Z,17.62
2016-04-18T04:10:17.373Z,17.62
2016-04-18T04:11:17.485Z,17.82
2016-04-18T04:12:17.379Z,17.62
2016-04-18T04:13:17.443Z,17.72
2016-04-18T04:14:17.571Z,17.91
2016-04-18T04:15:17.559Z,17.72
2016-04-18T04:16:17.451Z,17.82
2016-04-18T04:17:17.517Z,17.62
2016-04-18T04:18:17.504Z,17.62
2016-04-18T04:19:17.865Z,17.82
2016-04-18T04:20:17.540Z,17.82
2016-04-18T04:21:17.652Z,17.72
2016-04-18T04:22:17.624Z,17.82
2016-04-18T04:23:17.736Z,17.62
2016-04-18T04:24:17.786Z,17.82
2016-04-18T04:25:17.789Z,17.62
2016-04-18T04:26:17.728Z,17.62
2016-04-18T04:27:17.841Z,17.62
2016-04-18T04:28:17.780Z,17.82
2016-04-18T04:29:18.034Z,17.91
2016-04-18T04:30:17.833Z,17.72
2016-04-18T04:31:17.945Z,17.43
2016-04-18T04:32:17.885Z,17.82
2016-04-18T04:33:17.950Z,17.72
2016-04-18T04:34:17.985Z,17.43
2016-04-18T04:35:18.018Z,17.62
2016-04-18T04:36:18.005Z,17.82
2016-04-18T04:37:18.085Z,17.72
2016-04-18T04:38:18.073Z,17.82
2016-04-18T04:39:18.357Z,17.62
2016-04-18T04:40:18.110Z,17.72
2016-04-18T04:41:18.191Z,17.72
2016-04-18T04:42:18.146Z,17.72
2016-04-18T04:43:18.259Z,17.72
2016-04-18T04:44:18.198Z,17.43
2016-04-18T04:45:18.295Z,17.72
2016-04-18T04:46:18.281Z,17.43
2016-04-18T04:47:18.377Z,17.33
2016-04-18T04:48:18.349Z,17.43
2016-04-18T04:49:18.477Z,17.43
2016-04-18T04:50:18.386Z,17.43
2016-04-18T04:51:18.467Z,17.52
2016-04-18T04:52:18.422Z,17.52
2016-04-18T04:53:18.519Z,17.43
2016-04-18T04:54:18.475Z,17.52
2016-04-18T04:55:18.571Z,17.33
2016-04-18T04:56:18.543Z,17.33
2016-04-18T04:57:18.639Z,17.33
2016-04-18T04:58:18.626Z,17.62
2016-04-18T04:59:18.707Z,17.43
2016-04-18T05:00:18.663Z,17.43
2016-04-18T05:01:18.759Z,17.43
2016-04-18T05:02:18.699Z,17.52
2016-04-18T05:03:18.811Z,17.43
2016-04-18T05:04:18.767Z,17.33
2016-04-18T05:05:18.832Z,17.33
2016-04-18T05:06:18.804Z,17.43
2016-04-18T05:07:18.901Z,17.62
2016-04-18T05:08:18.871Z,17.52
2016-04-18T05:09:18.968Z,17.43
2016-04-18T05:10:18.923Z,17.43
2016-04-18T05:11:18.989Z,17.43
2016-04-18T05:12:18.976Z,17.43
2016-04-18T05:13:19.088Z,17.33
2016-04-18T05:14:19.028Z,17.52
2016-04-18T05:15:19.094Z,17.43
2016-04-18T05:16:19.081Z,17.43
2016-04-18T05:17:19.114Z,17.43
2016-04-18T05:18:19.133Z,17.62
2016-04-18T05:19:19.275Z,17.43
2016-04-18T05:20:19.185Z,17.52
2016-04-18T05:21:19.219Z,17.43
2016-04-18T05:22:19.253Z,17.24
2016-04-18T05:23:19.286Z,17.43
2016-04-18T05:24:19.305Z,17.33
2016-04-18T05:25:19.324Z,17.62
2016-04-18T05:26:19.357Z,17.52
2016-04-18T05:27:19.391Z,17.52
2016-04-18T05:28:19.409Z,17.62
2016-04-18T05:29:19.521Z,17.43
2016-04-18T05:30:19.468Z,17.43
2016-04-18T05:31:19.486Z,17.33
2016-04-18T05:32:19.520Z,17.52
2016-04-18T05:33:19.538Z,17.62
2016-04-18T05:34:19.572Z,17.43
2016-04-18T05:35:19.590Z,17.43
2016-04-18T05:36:19.624Z,17.52
2016-04-18T05:37:19.658Z,17.82
2016-04-18T05:38:19.693Z,17.62
2016-04-18T05:39:19.774Z,17.72
2016-04-18T05:40:19.729Z,17.72
2016-04-18T05:41:19.763Z,17.52
2016-04-18T05:42:19.796Z,17.62
2016-04-18T05:43:19.831Z,17.72
2016-04-18T05:44:19.864Z,17.62
2016-04-18T05:45:19.914Z,17.33
2016-04-18T05:46:19.917Z,16.85
2016-04-18T05:47:19.934Z,16.94
2016-04-18T05:48:19.970Z,17.24
2016-04-18T05:49:19.253Z,17.43
2016-04-18T05:50:20.022Z,17.43
2016-04-18T05:51:20.039Z,17.62
2016-04-18T05:52:20.073Z,17.43
2016-04-18T05:53:20.123Z,17.72
2016-04-18T05:54:20.126Z,17.43
2016-04-18T05:55:20.161Z,17.52
2016-04-18T05:56:20.195Z,17.82
2016-04-18T05:57:20.212Z,17.82
2016-04-18T05:58:20.231Z,17.62
2016-04-18T05:59:20.264Z,17.91
2016-04-18T06:00:20.314Z,17.82
2016-04-18T06:01:20.316Z,17.62
2016-04-18T06:02:20.350Z,17.72
2016-04-18T06:03:20.385Z,17.91
2016-04-18T06:04:20.388Z,17.91
2016-04-18T06:05:20.422Z,17.62
2016-04-18T06:06:20.455Z,17.52
2016-04-18T06:07:20.474Z,17.62
2016-04-18T06:08:20.523Z,17.62
2016-04-18T06:09:20.541Z,17.52
2016-04-18T06:10:20.575Z,17.52
2016-04-18T06:11:20.593Z,17.62
2016-04-18T06:12:20.612Z,18.01
2016-04-18T06:13:20.662Z,18.21
2016-04-18T06:14:20.680Z,18.21
2016-04-18T06:15:20.698Z,18.21
2016-04-18T06:16:20.717Z,17.43
2016-04-18T06:17:20.750Z,18.01
2016-04-18T06:18:20.801Z,17.62
2016-04-18T06:19:20.818Z,17.62
2016-04-18T06:20:20.853Z,18.21
2016-04-18T06:21:20.870Z,17.52
2016-04-18T06:22:20.904Z,17.82
2016-04-18T06:23:20.922Z,18.01
2016-04-18T06:24:20.941Z,18.21
2016-04-18T06:25:20.975Z,18.11
2016-04-18T06:26:21.009Z,18.01
2016-04-18T06:27:21.028Z,18.21
2016-04-18T06:28:21.045Z,18.11
2016-04-18T06:29:21.080Z,18.21
2016-04-18T06:30:21.161Z,18.01
2016-04-18T06:31:21.132Z,18.11
2016-04-18T06:32:21.166Z,18.01
2016-04-18T06:33:21.183Z,18.11
2016-04-18T06:34:21.219Z,18.21
2016-04-18T06:35:21.236Z,18.3
2016-04-18T06:36:21.302Z,18.11
2016-04-18T06:37:21.305Z,18.01
2016-04-18T06:38:21.338Z,18.21
2016-04-18T06:39:21.356Z,18.21
2016-04-18T06:40:21.391Z,18.21
2016-04-18T06:41:21.409Z,18.21
2016-04-18T06:42:21.443Z,18.21
2016-04-18T06:43:21.461Z,18.11
2016-04-18T06:44:21.495Z,18.01
2016-04-18T06:45:21.513Z,18.3
2016-04-18T06:46:21.562Z,18.11
2016-04-18T06:47:21.581Z,18.21
2016-04-18T06:48:21.599Z,18.11
2016-04-18T06:49:21.634Z,18.21
2016-04-18T06:50:21.668Z,18.4
2016-04-18T06:51:21.686Z,18.21
2016-04-18T06:52:21.720Z,18.49
2016-04-18T06:53:21.737Z,18.49
2016-04-18T06:54:21.772Z,18.49
2016-04-18T06:55:21.790Z,18.3
2016-04-18T06:56:21.825Z,18.3
2016-04-18T06:57:21.873Z,18.21
2016-04-18T06:58:21.876Z,18.4
2016-04-18T06:59:21.894Z,18.3
2016-04-18T07:00:21.928Z,18.3
2016-04-18T07:01:21.962Z,18.3
2016-04-18T07:02:21.980Z,18.3
2016-04-18T07:03:22.030Z,18.49
2016-04-18T07:04:22.079Z,18.4
2016-04-18T07:05:22.066Z,18.21
2016-04-18T07:06:22.101Z,18.3
2016-04-18T07:07:22.135Z,18.4
2016-04-18T07:08:22.153Z,18.4
2016-04-18T07:09:22.188Z,18.3
2016-04-18T07:10:22.205Z,18.21
2016-04-18T07:11:22.240Z,18.3
2016-04-18T07:12:22.257Z,18.49
2016-04-18T07:13:22.291Z,18.3
2016-04-18T07:14:22.325Z,18.3
2016-04-18T07:15:22.344Z,18.3
2016-04-18T07:16:22.378Z,18.3
2016-04-18T07:17:22.396Z,18.3
2016-04-18T07:18:22.445Z,18.4
2016-04-18T07:19:22.448Z,18.49
2016-04-18T07:20:22.481Z,17.52
2016-04-18T07:21:22.508Z,17.52
2016-04-18T07:22:22.525Z,17.72
2016-04-18T07:23:22.560Z,18.21
2016-04-18T07:24:22.594Z,18.4
2016-04-18T07:25:22.628Z,18.3
2016-04-18T07:26:22.646Z,18.3
2016-04-18T07:27:22.664Z,18.49
2016-04-18T07:28:22.777Z,18.3
2016-04-18T07:29:22.747Z,18.3
2016-04-18T07:30:22.766Z,18.21
2016-04-18T07:31:22.785Z,18.21
2016-04-18T07:32:22.802Z,18.21
2016-04-18T07:33:22.837Z,18.4
2016-04-18T07:34:22.886Z,18.21
2016-04-18T07:35:22.888Z,18.21
2016-04-18T07:36:22.923Z,18.21
2016-04-18T07:37:22.987Z,18.11
2016-04-18T07:38:22.975Z,18.21
2016-04-18T07:39:23.024Z,18.11
2016-04-18T07:40:23.026Z,18.21
2016-04-18T07:41:23.061Z,18.01
2016-04-18T07:42:23.079Z,18.21
2016-04-18T07:43:23.144Z,18.21
2016-04-18T07:44:23.162Z,18.21
2016-04-18T07:45:23.165Z,18.3
2016-04-18T07:46:23.199Z,18.11
2016-04-18T07:47:23.233Z,18.11
2016-04-18T07:48:23.236Z,18.21
2016-04-18T07:49:23.270Z,18.21
2016-04-18T07:50:23.336Z,18.21
2016-04-18T07:51:23.401Z,18.21
2016-04-18T07:52:23.403Z,18.11
2016-04-18T07:53:23.406Z,18.11
2016-04-18T07:54:23.424Z,18.11
2016-04-18T07:55:23.442Z,18.21
2016-04-18T07:56:23.460Z,18.21
2016-04-18T07:57:23.494Z,18.11
2016-04-18T07:58:23.513Z,18.11
2016-04-18T07:59:23.547Z,18.11
2016-04-18T08:00:23.565Z,18.11
2016-04-18T08:01:23.646Z,18.21
2016-04-18T08:02:23.632Z,18.11
2016-04-18T08:03:23.652Z,18.21
2016-04-18T08:04:23.685Z,18.11
2016-04-18T08:05:23.735Z,18.3
2016-04-18T08:06:23.737Z,18.11
2016-04-18T08:07:23.771Z,18.11
2016-04-18T08:08:23.806Z,18.11
2016-04-18T08:09:23.824Z,18.21
2016-04-18T08:10:23.857Z,18.01
2016-04-18T08:11:23.876Z,18.11
2016-04-18T08:12:23.925Z,18.4
2016-04-18T08:13:23.944Z,18.3
2016-04-18T08:14:23.993Z,18.3
2016-04-18T08:15:24.042Z,18.01
2016-04-18T08:16:24.014Z,18.4
2016-04-18T08:17:24.048Z,18.49
2016-04-18T08:18:24.067Z,18.49
2016-04-18T08:19:24.085Z,18.4
2016-04-18T08:20:24.135Z,18.3
2016-04-18T08:21:24.153Z,18.11
2016-04-18T08:22:24.203Z,18.01
2016-04-18T08:23:24.222Z,18.11
2016-04-18T08:24:24.240Z,18.01
2016-04-18T08:25:24.492Z,18.01
2016-04-18T08:26:24.291Z,18.01
2016-04-18T08:27:24.325Z,18.01
2016-04-18T08:28:24.343Z,18.21
2016-04-18T08:29:24.362Z,18.3
2016-04-18T08:30:24.427Z,18.01
2016-04-18T08:31:24.446Z,17.52
2016-04-18T08:32:24.464Z,17.52
2016-04-18T08:33:24.483Z,17.33
2016-04-18T08:34:24.516Z,17.24
2016-04-18T08:35:24.565Z,17.52
2016-04-18T08:36:24.569Z,17.33
2016-04-18T08:37:24.587Z,17.52
2016-04-18T08:38:24.637Z,17.62
2016-04-18T08:39:24.671Z,17.52
2016-04-18T08:40:24.673Z,17.52
2016-04-18T08:41:24.723Z,17.72
2016-04-18T08:42:24.725Z,17.52
2016-04-18T08:43:24.743Z,17.72
2016-04-18T08:44:24.778Z,17.43
2016-04-18T08:45:24.827Z,17.62
2016-04-18T08:46:24.861Z,17.72
2016-04-18T08:47:24.864Z,17.43
2016-04-18T08:48:24.897Z,17.72
2016-04-18T08:49:24.916Z,17.33
2016-04-18T08:50:24.950Z,17.62
2016-04-18T08:51:24.968Z,17.43
2016-04-18T08:52:25.003Z,17.43
2016-04-18T08:53:25.036Z,17.82
2016-04-18T08:54:25.039Z,17.43
2016-04-18T08:55:24.964Z,17.43
2016-04-18T08:56:25.122Z,17.43
2016-04-18T08:57:25.140Z,17.52
2016-04-18T08:58:25.158Z,17.62
2016-04-18T08:59:25.193Z,17.62
2016-04-18T09:00:25.210Z,17.52
2016-04-18T09:01:25.277Z,17.52
2016-04-18T09:02:25.263Z,17.72
2016-04-18T09:03:25.297Z,17.62
2016-04-18T09:04:25.331Z,17.33
2016-04-18T09:05:25.366Z,17.52
2016-04-18T09:06:25.368Z,17.43
2016-04-18T09:07:25.418Z,17.33
2016-04-18T09:08:25.436Z,17.43
2016-04-18T09:09:25.471Z,17.61
2016-04-18T09:10:25.550Z,17.62
2016-04-18T09:11:25.537Z,17.82
2016-04-18T09:12:25.572Z,17.62
2016-04-18T09:13:25.589Z,17.52
2016-04-18T09:14:25.593Z,17.52
2016-04-18T09:15:25.626Z,17.62
2016-04-18T09:16:25.645Z,17.72
2016-04-18T09:17:25.694Z,17.91
2016-04-18T09:18:25.728Z,17.82
2016-04-18T09:19:25.731Z,17.43
2016-04-18T09:20:25.781Z,17.43
2016-04-18T09:21:25.823Z,17.52
2016-04-18T09:22:25.884Z,17.33
2016-04-18T09:23:25.976Z,17.52
2016-04-18T09:24:26.021Z,17.52
2016-04-18T09:25:25.939Z,17.72
2016-04-18T09:26:26.140Z,17.32
2016-04-18T09:27:26.205Z,17.52
2016-04-18T09:28:26.239Z,17.43
2016-04-18T09:29:26.288Z,17.62
2016-04-18T09:30:26.322Z,17.72
2016-04-18T09:31:26.350Z,17.43
2016-04-18T09:32:26.389Z,17.71
2016-04-18T09:33:26.412Z,17.72
2016-04-18T09:34:26.451Z,17.43
2016-04-18T09:35:26.476Z,17.24
2016-04-18T09:36:26.513Z,16.85
2016-04-18T09:37:26.548Z,16.85
2016-04-18T09:38:26.570Z,16.75
2016-04-18T09:39:26.604Z,16.94
2016-04-18T09:40:26.734Z,16.46
2016-04-18T09:41:26.644Z,17.33
2016-04-18T09:42:26.695Z,17.72
2016-04-18T09:43:26.714Z,17.72
2016-04-18T09:44:26.748Z,17.62
2016-04-18T09:45:26.768Z,17.52
2016-04-18T09:46:26.786Z,17.62
2016-04-18T09:47:26.820Z,17.72
2016-04-18T09:48:26.870Z,17.52
2016-04-18T09:49:26.888Z,17.52
2016-04-18T09:50:26.937Z,17.62
2016-04-18T09:51:26.940Z,17.72
2016-04-18T09:52:26.958Z,17.52
2016-04-18T09:53:26.992Z,17.62
2016-04-18T09:54:27.057Z,17.82
2016-04-18T09:55:27.170Z,18.01
2016-04-18T09:56:27.079Z,18.4
2016-04-18T09:57:27.113Z,18.49
2016-04-18T09:58:27.146Z,18.3
2016-04-18T09:59:27.165Z,18.3
2016-04-18T10:00:27.215Z,18.4
2016-04-18T10:01:27.217Z,18.3
2016-04-18T10:02:27.267Z,18.4
2016-04-18T10:03:27.269Z,18.01
2016-04-18T10:04:27.303Z,17.52
2016-04-18T10:05:27.337Z,18.11
2016-04-18T10:06:27.356Z,18.21
2016-04-18T10:07:27.374Z,18.49
2016-04-18T10:08:27.408Z,18.49
2016-04-18T10:09:27.442Z,17.91
2016-04-18T10:10:27.351Z,18.3
2016-04-18T10:11:27.478Z,18.4
2016-04-18T10:12:27.512Z,18.11
2016-04-18T10:13:27.534Z,18.4
2016-04-18T10:14:27.567Z,18.11
2016-04-18T10:15:27.648Z,18.4
2016-04-18T10:16:27.620Z,18.4
2016-04-18T10:17:27.654Z,18.49
2016-04-18T10:18:27.688Z,18.21
2016-04-18T10:19:27.705Z,18.21
2016-04-18T10:20:27.740Z,18.4
2016-04-18T10:21:27.758Z,18.3
2016-04-18T10:22:27.792Z,18.01
2016-04-18T10:23:27.826Z,18.21
2016-04-18T10:24:27.860Z,18.01
2016-04-18T10:25:27.910Z,18.11
2016-04-18T10:26:27.896Z,18.21
2016-04-18T10:27:27.915Z,18.4
2016-04-18T10:28:31.605Z,18.4
2016-04-18T10:29:33.077Z,18.4
2016-04-18T10:30:28.017Z,18.21
2016-04-18T10:31:28.035Z,18.3
2016-04-18T10:32:28.053Z,18.3
2016-04-18T10:33:28.103Z,18.3
2016-04-18T10:34:28.121Z,18.3
2016-04-18T10:35:28.140Z,18.4
2016-04-18T10:36:28.174Z,18.3
2016-04-18T10:37:28.192Z,18.21
2016-04-18T10:38:28.210Z,18.21
2016-04-18T10:39:28.259Z,18.11
2016-04-18T10:40:28.279Z,18.11
2016-04-18T10:41:28.311Z,18.01
2016-04-18T10:42:28.345Z,17.82
2016-04-18T10:43:28.364Z,18.11
2016-04-18T10:44:28.398Z,18.3
2016-04-18T10:45:28.432Z,18.21
2016-04-18T10:46:28.451Z,18.21
2016-04-18T10:47:28.484Z,18.21
2016-04-18T10:48:28.503Z,18.21
2016-04-18T10:49:28.537Z,18.21
2016-04-18T10:50:28.572Z,18.01
2016-04-18T10:51:28.573Z,18.01
2016-04-18T10:52:28.607Z,18.01
2016-04-18T10:53:28.625Z,18.21
2016-04-18T10:54:28.644Z,18.01
2016-04-18T10:55:28.677Z,18.21
2016-04-18T10:56:33.993Z,17.52
2016-04-18T10:57:28.730Z,18.01
2016-04-18T10:58:28.763Z,17.91
2016-04-18T10:59:28.783Z,18.01
2016-04-18T11:00:28.832Z,18.01
2016-04-18T11:01:28.882Z,17.82
2016-04-18T11:02:28.868Z,17.72
2016-04-18T11:03:28.902Z,17.62
2016-04-18T11:04:28.936Z,17.82
2016-04-18T11:05:28.954Z,17.91
2016-04-18T11:06:28.989Z,17.82
2016-04-18T11:07:29.006Z,17.52
2016-04-18T11:08:29.040Z,17.52
2016-04-18T11:09:29.075Z,17.24
2016-04-18T11:10:29.093Z,17.24
2016-04-18T11:11:29.142Z,17.33
2016-04-18T11:12:29.145Z,17.04
2016-04-18T11:13:29.179Z,16.75
2016-04-18T11:14:29.228Z,16.27
2016-04-18T11:15:29.232Z,16.36
2016-04-18T11:16:29.250Z,16.46
2016-04-18T11:17:29.284Z,16.75
2016-04-18T11:18:29.302Z,16.46
2016-04-18T11:19:29.336Z,17.13
2016-04-18T11:20:29.355Z,17.33
2016-04-18T11:21:29.404Z,16.75
2016-04-18T11:22:29.439Z,16.27
2016-04-18T11:23:29.456Z,16.17
2016-04-18T11:24:29.475Z,16.46
2016-04-18T11:25:29.508Z,16.75
2016-04-18T11:26:29.527Z,17.33
2016-04-18T11:27:29.545Z,16.94
2016-04-18T11:28:29.580Z,16.27
2016-04-18T11:29:29.613Z,16.84
2016-04-18T11:30:29.631Z,16.75
2016-04-18T11:31:29.681Z,17.32
2016-04-18T11:32:29.684Z,16.46
2016-04-18T11:33:29.749Z,16.66
2016-04-18T11:34:29.736Z,16.36
2016-04-18T11:35:29.817Z,16.85
2016-04-18T11:36:29.803Z,16.26
2016-04-18T11:37:29.837Z,16.64
2016-04-18T11:38:29.871Z,17.03
2016-04-18T11:39:29.890Z,17.61
2016-04-18T11:40:29.924Z,17.72
2016-04-18T11:41:29.942Z,17.91
2016-04-18T11:42:29.961Z,17.91
2016-04-18T11:43:30.009Z,17.71
2016-04-18T11:44:30.028Z,17.72
2016-04-18T11:45:30.047Z,17.61
2016-04-18T11:46:30.065Z,17.52
2016-04-18T11:47:30.161Z,17.43
2016-04-18T11:48:30.133Z,18.01
2016-04-18T11:49:30.167Z,18.11
2016-04-18T11:50:30.200Z,18.11
2016-04-18T11:51:30.219Z,17.91
2016-04-18T11:52:30.253Z,18.01
2016-04-18T11:53:30.287Z,17.52
2016-04-18T11:54:30.290Z,17.52
